createdAt,value
2022-10-05T00:01:58.168Z,19.50
2022-10-05T00:04:28.975Z,19.50
2022-10-05T00:06:57.263Z,19.60
2022-10-05T00:09:24.175Z,19.60
2022-10-05T00:11:51.688Z,19.60
2022-10-05T00:14:28.951Z,19.60
2022-10-05T00:16:56.981Z,19.60
2022-10-05T00:19:35.709Z,19.60
2022-10-05T00:22:22.657Z,19.70
2022-10-05T00:24:56.478Z,19.60
2022-10-05T00:27:37.981Z,19.70
2022-10-05T00:30:20.072Z,19.70
2022-10-05T00:32:47.291Z,19.60
2022-10-05T00:35:16.241Z,19.70
2022-10-05T00:37:44.629Z,19.60
2022-10-05T00:40:11.551Z,19.70
2022-10-05T00:43:07.381Z,19.60
2022-10-05T00:45:40.014Z,19.70
2022-10-05T00:48:12.653Z,19.70
2022-10-05T00:50:49.402Z,19.60
2022-10-05T00:53:53.876Z,19.60
2022-10-05T00:56:41.998Z,19.60
2022-10-05T00:59:25.210Z,19.60
2022-10-05T01:02:01.056Z,19.60
2022-10-05T01:04:55.755Z,19.50
2022-10-05T01:07:50.384Z,19.50
2022-10-05T01:10:44.992Z,19.50
2022-10-05T01:13:32.090Z,19.40
2022-10-05T01:16:15.552Z,19.40
2022-10-05T01:18:50.412Z,19.40
2022-10-05T01:21:20.038Z,19.30
2022-10-05T01:24:08.176Z,19.30
2022-10-05T01:26:47.286Z,19.30
2022-10-05T01:29:30.551Z,19.30
2022-10-05T01:32:14.268Z,19.30
2022-10-05T01:35:02.816Z,19.30
2022-10-05T01:37:40.309Z,19.20
2022-10-05T01:40:27.800Z,19.30
2022-10-05T01:43:25.020Z,19.30
2022-10-05T01:46:06.880Z,19.30
2022-10-05T01:49:07.603Z,19.20
2022-10-05T01:52:02.397Z,19.20
2022-10-05T01:54:38.091Z,19.20
2022-10-05T01:57:04.917Z,19.20
2022-10-05T01:59:46.927Z,19.10
2022-10-05T02:02:18.935Z,19.10
2022-10-05T02:05:02.290Z,19.10
2022-10-05T02:08:26.769Z,19.00
2022-10-05T02:11:07.398Z,19.00
2022-10-05T02:13:38.821Z,19.00
2022-10-05T02:16:49.946Z,18.90
2022-10-05T02:19:25.640Z,18.90
2022-10-05T02:21:59.274Z,18.90
2022-10-05T02:24:32.428Z,18.90
2022-10-05T02:26:59.859Z,18.90
2022-10-05T02:29:33.196Z,18.90
2022-10-05T02:32:11.466Z,18.90
2022-10-05T02:34:40.622Z,18.80
2022-10-05T02:37:57.325Z,18.80
2022-10-05T02:40:34.760Z,18.80
2022-10-05T02:43:40.092Z,18.80
2022-10-05T02:46:27.421Z,18.90
2022-10-05T02:49:14.111Z,18.90
2022-10-05T02:51:56.452Z,18.80
2022-10-05T02:54:23.661Z,18.80
2022-10-05T02:56:58.222Z,18.80
2022-10-05T02:59:51.872Z,18.80
2022-10-05T03:02:33.938Z,18.80
2022-10-05T03:05:19.109Z,18.90
2022-10-05T03:07:54.659Z,18.90
2022-10-05T03:10:50.818Z,18.90
2022-10-05T03:13:34.246Z,18.90
2022-10-05T03:16:17.083Z,18.90
2022-10-05T03:19:05.114Z,18.90
2022-10-05T03:21:41.474Z,18.90
2022-10-05T03:24:44.411Z,18.90
2022-10-05T03:27:37.482Z,18.90
2022-10-05T03:30:23.786Z,18.90
2022-10-05T03:33:14.172Z,18.90
2022-10-05T03:35:41.363Z,18.90
2022-10-05T03:38:34.391Z,18.90
2022-10-05T03:41:25.539Z,18.90
2022-10-05T03:44:23.210Z,18.90
2022-10-05T03:46:56.415Z,18.90
2022-10-05T03:49:44.570Z,18.90
2022-10-05T03:52:18.812Z,18.90
2022-10-05T03:55:09.490Z,18.90
2022-10-05T03:57:40.253Z,18.90
2022-10-05T04:00:19.929Z,18.90
2022-10-05T04:03:12.486Z,18.90
2022-10-05T04:05:55.521Z,18.90
2022-10-05T04:08:48.090Z,18.90
2022-10-05T04:11:26.413Z,18.90
2022-10-05T04:14:14.748Z,19.00
2022-10-05T04:16:57.817Z,19.00
2022-10-05T04:19:47.661Z,19.00
2022-10-05T04:22:44.178Z,19.00
2022-10-05T04:25:18.354Z,19.00
2022-10-05T04:28:03.235Z,19.00
2022-10-05T04:30:32.251Z,19.00
2022-10-05T04:33:00.748Z,19.00
2022-10-05T04:35:52.716Z,19.00
2022-10-05T04:38:31.590Z,19.00
2022-10-05T04:41:22.852Z,19.00
2022-10-05T04:44:41.159Z,19.00
2022-10-05T04:47:21.928Z,19.00
2022-10-05T04:50:08.125Z,19.10
2022-10-05T04:52:35.203Z,19.10
2022-10-05T04:55:22.545Z,19.10
2022-10-05T04:58:11.174Z,19.20
2022-10-05T05:00:44.706Z,19.20
2022-10-05T05:03:41.069Z,19.20
2022-10-05T05:06:32.367Z,19.20
2022-10-05T05:09:37.563Z,19.20
2022-10-05T05:12:11.054Z,19.10
2022-10-05T05:14:42.208Z,19.20
2022-10-05T05:17:37.063Z,19.10
2022-10-05T05:20:18.331Z,19.10
2022-10-05T05:23:10.210Z,19.10
2022-10-05T05:25:40.857Z,19.00
2022-10-05T05:28:24.649Z,19.00
2022-10-05T05:31:13.140Z,19.00
2022-10-05T05:33:54.662Z,19.00
2022-10-05T05:36:55.384Z,19.00
2022-10-05T05:39:49.304Z,19.00
2022-10-05T05:42:45.979Z,19.10
2022-10-05T05:45:50.080Z,19.00
2022-10-05T05:48:26.713Z,19.00
2022-10-05T05:51:13.301Z,19.00
2022-10-05T05:54:01.504Z,19.00
2022-10-05T05:56:37.574Z,18.90
2022-10-05T05:59:17.597Z,18.90
2022-10-05T06:01:52.472Z,18.90
2022-10-05T06:04:27.271Z,18.90
2022-10-05T06:06:57.397Z,18.90
2022-10-05T06:09:31.208Z,18.90
2022-10-05T06:12:34.683Z,18.90
2022-10-05T06:15:30.739Z,19.00
2022-10-05T06:18:01.368Z,18.90
2022-10-05T06:20:45.304Z,19.00
2022-10-05T06:23:18.645Z,19.00
2022-10-05T06:25:54.776Z,19.00
2022-10-05T06:28:27.173Z,19.00
2022-10-05T06:31:24.890Z,19.00
2022-10-05T06:34:05.820Z,19.00
2022-10-05T06:36:45.739Z,19.00
2022-10-05T06:39:22.830Z,19.00
2022-10-05T06:41:55.972Z,19.00
2022-10-05T06:45:02.001Z,19.00
2022-10-05T06:48:24.038Z,19.00
2022-10-05T06:51:36.275Z,18.90
2022-10-05T06:54:38.217Z,18.90
2022-10-05T06:57:19.263Z,18.90
2022-10-05T07:00:05.286Z,19.00
2022-10-05T07:03:15.217Z,19.00
2022-10-05T07:05:45.156Z,19.00
2022-10-05T07:08:16.540Z,19.00
2022-10-05T07:10:49.290Z,19.00
2022-10-05T07:13:48.780Z,19.00
2022-10-05T07:16:45.423Z,19.00
2022-10-05T07:19:27.811Z,19.00
2022-10-05T07:22:04.582Z,19.00
2022-10-05T07:24:33.501Z,19.10
2022-10-05T07:27:20.467Z,19.10
2022-10-05T07:30:02.373Z,19.20
2022-10-05T07:32:43.164Z,19.10
2022-10-05T07:35:34.228Z,19.20
2022-10-05T07:38:11.470Z,19.20
2022-10-05T07:40:59.399Z,19.20
2022-10-05T07:44:01.066Z,19.20
2022-10-05T07:46:42.545Z,19.20
2022-10-05T07:49:19.470Z,19.10
2022-10-05T07:51:51.251Z,19.10
2022-10-05T07:54:30.393Z,19.10
2022-10-05T07:57:25.842Z,19.10
2022-10-05T08:00:05.829Z,19.10
2022-10-05T08:02:49.069Z,19.10
2022-10-05T08:05:19.875Z,19.10
2022-10-05T08:07:52.270Z,19.10
2022-10-05T08:10:34.977Z,19.10
2022-10-05T08:13:27.246Z,19.10
2022-10-05T08:15:59.917Z,19.10
2022-10-05T08:19:00.911Z,19.20
2022-10-05T08:21:43.203Z,19.20
2022-10-05T08:24:39.647Z,19.20
2022-10-05T08:27:11.784Z,19.20
2022-10-05T08:29:56.864Z,19.20
2022-10-05T08:32:41.113Z,19.20
2022-10-05T08:35:34.768Z,19.30
2022-10-05T08:38:16.684Z,19.30
2022-10-05T08:41:21.352Z,19.30
2022-10-05T08:44:09.415Z,19.30
2022-10-05T08:46:51.332Z,19.30
2022-10-05T08:50:09.788Z,19.30
2022-10-05T08:53:08.778Z,19.30
2022-10-05T08:56:10.464Z,19.30
2022-10-05T08:58:43.227Z,19.30
2022-10-05T09:01:21.619Z,19.40
2022-10-05T09:04:14.676Z,19.40
2022-10-05T09:07:12.795Z,19.40
2022-10-05T09:10:01.978Z,19.50
2022-10-05T09:13:07.523Z,19.50
2022-10-05T09:16:16.860Z,19.50
2022-10-05T09:18:52.888Z,19.60
2022-10-05T09:21:42.355Z,19.60
2022-10-05T09:24:22.677Z,19.60
2022-10-05T09:27:17.915Z,19.70
2022-10-05T09:29:50.727Z,19.70
2022-10-05T09:32:52.025Z,19.70
2022-10-05T09:35:53.282Z,19.70
2022-10-05T09:39:00.710Z,19.70
2022-10-05T09:41:39.534Z,19.80
2022-10-05T09:44:30.705Z,19.90
2022-10-05T09:47:22.467Z,19.90
2022-10-05T09:50:28.068Z,20.00
2022-10-05T09:53:29.824Z,20.00
2022-10-05T09:56:43.823Z,20.10
2022-10-05T09:59:22.518Z,20.10
2022-10-05T10:02:15.342Z,20.20
2022-10-05T10:05:20.114Z,20.20
2022-10-05T10:08:20.228Z,20.30
2022-10-05T10:10:48.189Z,20.30
2022-10-05T10:13:55.751Z,20.30
2022-10-05T10:16:41.306Z,20.30
2022-10-05T10:19:24.977Z,20.30
2022-10-05T10:22:21.046Z,20.30
2022-10-05T10:25:25.417Z,20.30
2022-10-05T10:28:15.309Z,20.30
2022-10-05T10:31:00.046Z,20.30
2022-10-05T10:33:48.586Z,20.40
2022-10-05T10:36:42.914Z,20.30
2022-10-05T10:39:21.579Z,20.30
2022-10-05T10:42:08.014Z,20.30
2022-10-05T10:44:42.448Z,20.30
2022-10-05T10:47:33.637Z,20.30
2022-10-05T10:50:18.494Z,20.30
2022-10-05T10:52:54.398Z,20.30
2022-10-05T10:55:30.874Z,20.40
2022-10-05T10:58:16.502Z,20.40
2022-10-05T11:01:01.581Z,20.40
2022-10-05T11:04:02.271Z,20.40
2022-10-05T11:06:56.634Z,20.40
2022-10-05T11:09:44.886Z,20.40
2022-10-05T11:12:36.506Z,20.50
2022-10-05T11:15:21.354Z,20.50
2022-10-05T11:18:17.692Z,20.60
2022-10-05T11:21:02.388Z,20.60
2022-10-05T11:23:54.172Z,20.60
2022-10-05T11:26:32.533Z,20.70
2022-10-05T11:29:11.279Z,20.70
2022-10-05T11:32:22.563Z,20.70
2022-10-05T11:35:24.566Z,20.70
2022-10-05T11:38:12.924Z,20.80
2022-10-05T11:41:02.157Z,20.80
2022-10-05T11:43:47.688Z,20.80
2022-10-05T11:46:49.167Z,20.90
2022-10-05T11:49:33.717Z,21.00
2022-10-05T11:52:35.568Z,21.00
2022-10-05T11:55:20.731Z,21.10
2022-10-05T11:57:56.044Z,21.20
2022-10-05T12:00:40.614Z,21.20
2022-10-05T12:03:31.354Z,21.20
2022-10-05T12:06:15.763Z,21.20
2022-10-05T12:09:18.161Z,21.30
2022-10-05T12:12:07.978Z,21.30
2022-10-05T12:15:17.393Z,21.30
2022-10-05T12:17:53.203Z,21.30
2022-10-05T12:20:23.165Z,21.40
2022-10-05T12:22:58.909Z,21.50
2022-10-05T12:25:34.305Z,21.50
2022-10-05T12:28:09.135Z,21.60
2022-10-05T12:31:08.816Z,21.60
2022-10-05T12:34:21.197Z,21.70
2022-10-05T12:37:05.547Z,21.70
2022-10-05T12:39:56.486Z,21.80
2022-10-05T12:42:42.086Z,21.80
2022-10-05T12:45:26.410Z,21.80
2022-10-05T12:48:25.745Z,21.80
2022-10-05T12:51:09.253Z,21.80
2022-10-05T12:53:48.359Z,21.80
2022-10-05T12:56:36.897Z,21.80
2022-10-05T12:59:24.469Z,21.80
2022-10-05T13:02:20.113Z,21.80
2022-10-05T13:04:56.072Z,21.80
2022-10-05T13:07:41.798Z,21.90
2022-10-05T13:10:14.587Z,21.80
2022-10-05T13:13:12.349Z,21.80
2022-10-05T13:15:51.454Z,21.80
2022-10-05T13:18:49.788Z,21.80
2022-10-05T13:21:42.663Z,21.80
2022-10-05T13:24:31.118Z,21.80
2022-10-05T13:27:05.187Z,21.80
2022-10-05T13:29:38.677Z,21.80
2022-10-05T13:32:41.028Z,21.80
2022-10-05T13:35:22.075Z,21.90
2022-10-05T13:38:01.732Z,21.90
2022-10-05T13:40:35.900Z,21.80
2022-10-05T13:43:33.890Z,21.90
2022-10-05T13:46:17.487Z,21.90
2022-10-05T13:49:06.667Z,21.90
2022-10-05T13:51:40.911Z,21.90
2022-10-05T13:54:49.990Z,21.90
2022-10-05T13:57:45.169Z,21.90
2022-10-05T14:00:22.729Z,21.90
2022-10-05T14:02:56.651Z,21.90
2022-10-05T14:05:27.025Z,21.90
2022-10-05T14:07:53.907Z,21.90
2022-10-05T14:10:35.827Z,21.90
2022-10-05T14:13:16.438Z,21.90
2022-10-05T14:16:15.799Z,21.80
2022-10-05T14:19:05.910Z,21.80
2022-10-05T14:21:47.137Z,21.90
2022-10-05T14:24:43.739Z,21.90
2022-10-05T14:27:26.877Z,21.90
2022-10-05T14:30:01.863Z,21.90
2022-10-05T14:32:44.167Z,21.80
2022-10-05T14:35:12.850Z,21.80
2022-10-05T14:38:02.147Z,21.80
2022-10-05T14:40:36.405Z,21.80
2022-10-05T14:43:15.593Z,21.80
2022-10-05T14:46:25.006Z,21.70
2022-10-05T14:49:21.136Z,21.70
2022-10-05T14:51:49.808Z,21.70
2022-10-05T14:54:46.089Z,21.70
2022-10-05T14:57:25.328Z,21.70
2022-10-05T15:00:11.341Z,21.60
2022-10-05T15:03:04.460Z,21.60
2022-10-05T15:05:37.082Z,21.60
2022-10-05T15:08:13.214Z,21.60
2022-10-05T15:10:42.182Z,21.50
2022-10-05T15:13:25.758Z,21.60
2022-10-05T15:15:56.720Z,21.50
2022-10-05T15:18:50.000Z,21.50
2022-10-05T15:21:26.649Z,21.50
2022-10-05T15:23:57.509Z,21.40
2022-10-05T15:26:46.025Z,21.40
2022-10-05T15:29:26.073Z,21.30
2022-10-05T15:32:06.661Z,21.20
2022-10-05T15:34:52.186Z,21.20
2022-10-05T15:37:43.904Z,21.20
2022-10-05T15:40:28.598Z,21.10
2022-10-05T15:43:02.167Z,21.10
2022-10-05T15:45:39.985Z,21.10
2022-10-05T15:48:29.170Z,21.10
2022-10-05T15:51:21.292Z,21.10
2022-10-05T15:54:42.582Z,21.10
2022-10-05T15:57:27.820Z,21.10
2022-10-05T16:00:19.106Z,21.10
2022-10-05T16:03:13.207Z,21.10
2022-10-05T16:06:13.137Z,21.10
2022-10-05T16:09:05.935Z,21.10
2022-10-05T16:12:02.457Z,21.00
2022-10-05T16:15:02.098Z,21.00
2022-10-05T16:17:33.720Z,20.90
2022-10-05T16:20:20.677Z,21.00
2022-10-05T16:23:01.150Z,20.90
2022-10-05T16:25:40.640Z,20.90
2022-10-05T16:28:24.068Z,20.90
2022-10-05T16:31:19.687Z,20.90
2022-10-05T16:33:55.888Z,20.90
2022-10-05T16:36:39.661Z,20.90
2022-10-05T16:39:45.025Z,20.80
2022-10-05T16:42:24.847Z,20.80
2022-10-05T16:45:16.467Z,20.80
2022-10-05T16:47:50.285Z,20.80
2022-10-05T16:50:28.422Z,20.80
2022-10-05T16:53:12.419Z,20.80
2022-10-05T16:55:45.479Z,20.80
2022-10-05T16:58:24.264Z,20.80
2022-10-05T17:01:11.023Z,20.80
2022-10-05T17:04:00.193Z,20.80
2022-10-05T17:06:45.905Z,20.70
2022-10-05T17:09:42.818Z,20.70
2022-10-05T17:12:18.910Z,20.70
2022-10-05T17:15:12.510Z,20.70
2022-10-05T17:17:54.827Z,20.70
2022-10-05T17:21:02.562Z,20.70
2022-10-05T17:23:50.292Z,20.70
2022-10-05T17:26:23.106Z,20.70
2022-10-05T17:29:25.141Z,20.70
2022-10-05T17:32:07.284Z,20.70
2022-10-05T17:34:36.794Z,20.70
2022-10-05T17:37:42.636Z,20.60
2022-10-05T17:41:00.363Z,20.60
2022-10-05T17:43:30.670Z,20.60
2022-10-05T17:46:00.529Z,20.60
2022-10-05T17:48:48.794Z,20.60
2022-10-05T17:51:37.106Z,20.60
2022-10-05T17:54:40.793Z,20.60
2022-10-05T17:57:07.614Z,20.60
2022-10-05T17:59:37.032Z,20.60
2022-10-05T18:02:36.295Z,20.60
2022-10-05T18:05:04.455Z,20.60
2022-10-05T18:07:33.909Z,20.60
2022-10-05T18:10:09.826Z,20.60
2022-10-05T18:12:36.963Z,20.60
2022-10-05T18:15:03.786Z,20.60
2022-10-05T18:17:51.749Z,20.60
2022-10-05T18:20:26.325Z,20.60
2022-10-05T18:23:14.417Z,20.60
2022-10-05T18:26:04.681Z,20.70
2022-10-05T18:28:31.657Z,20.70
2022-10-05T18:31:17.501Z,20.70
2022-10-05T18:33:59.608Z,20.70
2022-10-05T18:37:07.336Z,20.70
2022-10-05T18:39:49.426Z,20.80
2022-10-05T18:42:37.370Z,20.80
2022-10-05T18:45:29.892Z,20.80
2022-10-05T18:48:31.130Z,20.80
2022-10-05T18:51:17.837Z,20.80
2022-10-05T18:54:18.040Z,20.80
2022-10-05T18:56:52.721Z,20.90
2022-10-05T18:59:45.125Z,20.90
2022-10-05T19:02:27.175Z,20.90
2022-10-05T19:05:46.529Z,20.90
2022-10-05T19:08:30.336Z,20.90
2022-10-05T19:11:24.265Z,20.90
2022-10-05T19:14:24.044Z,21.00
2022-10-05T19:17:28.846Z,21.00
2022-10-05T19:20:06.340Z,21.00
2022-10-05T19:22:36.009Z,21.00
2022-10-05T19:25:34.070Z,21.00
2022-10-05T19:28:10.849Z,21.00
2022-10-05T19:30:59.623Z,21.00
2022-10-05T19:33:31.468Z,21.00
2022-10-05T19:36:04.146Z,21.00
2022-10-05T19:39:01.950Z,21.00
2022-10-05T19:41:52.059Z,21.00
2022-10-05T19:44:53.142Z,21.00
2022-10-05T19:47:26.153Z,21.00
2022-10-05T19:49:54.315Z,21.00
2022-10-05T19:52:28.496Z,20.90
2022-10-05T19:55:31.577Z,20.80
2022-10-05T19:58:02.508Z,20.70
2022-10-05T20:00:31.743Z,20.60
2022-10-05T20:03:12.403Z,20.50
2022-10-05T20:05:40.123Z,20.30
2022-10-05T20:08:08.007Z,20.20
2022-10-05T20:10:35.030Z,20.20
2022-10-05T20:13:04.165Z,20.10
2022-10-05T20:15:51.966Z,20.00
2022-10-05T20:18:57.973Z,19.90
2022-10-05T20:21:43.228Z,19.80
2022-10-05T20:24:17.381Z,19.70
2022-10-05T20:27:02.024Z,19.70
2022-10-05T20:29:30.618Z,19.70
2022-10-05T20:31:57.827Z,19.70
2022-10-05T20:34:24.895Z,19.60
2022-10-05T20:36:52.385Z,19.60
2022-10-05T20:39:21.352Z,19.60
2022-10-05T20:41:51.854Z,19.60
2022-10-05T20:44:18.747Z,19.70
2022-10-05T20:46:46.631Z,19.70
2022-10-05T20:49:13.769Z,19.70
2022-10-05T20:51:40.818Z,19.70
2022-10-05T20:54:08.219Z,19.70
2022-10-05T20:56:35.403Z,19.60
2022-10-05T20:59:02.435Z,19.60
2022-10-05T21:01:31.950Z,19.60
2022-10-05T21:03:58.886Z,19.60
2022-10-05T21:06:29.927Z,19.60
2022-10-05T21:08:56.747Z,19.50
2022-10-05T21:11:23.718Z,19.50
2022-10-05T21:13:51.226Z,19.50
2022-10-05T21:16:19.714Z,19.50
2022-10-05T21:18:48.780Z,19.50
2022-10-05T21:21:17.437Z,19.50
2022-10-05T21:23:48.425Z,19.50
2022-10-05T21:26:15.554Z,19.50
2022-10-05T21:28:42.482Z,19.50
2022-10-05T21:31:09.479Z,19.50
2022-10-05T21:33:36.949Z,19.50
2022-10-05T21:36:04.034Z,19.50
2022-10-05T21:38:31.120Z,19.50
2022-10-05T21:40:58.175Z,19.50
2022-10-05T21:43:25.567Z,19.50
2022-10-05T21:45:55.249Z,19.50
2022-10-05T21:48:23.265Z,19.50
2022-10-05T21:50:50.238Z,19.40
2022-10-05T21:53:20.360Z,19.40
2022-10-05T21:55:49.801Z,19.40
2022-10-05T21:58:18.885Z,19.40
2022-10-05T22:00:45.741Z,19.40
2022-10-05T22:03:12.624Z,19.30
2022-10-05T22:05:39.540Z,19.30
2022-10-05T22:08:07.109Z,19.20
2022-10-05T22:10:34.180Z,19.20
2022-10-05T22:13:04.446Z,19.10
2022-10-05T22:15:31.811Z,19.10
2022-10-05T22:17:59.924Z,19.00
2022-10-05T22:20:27.286Z,18.90
2022-10-05T22:22:54.404Z,18.90
2022-10-05T22:25:22.149Z,18.80
2022-10-05T22:27:49.899Z,18.80
2022-10-05T22:30:17.316Z,18.80
2022-10-05T22:32:44.587Z,18.70
2022-10-05T22:35:12.027Z,18.70
2022-10-05T22:37:39.173Z,18.70
2022-10-05T22:40:07.328Z,18.60
2022-10-05T22:42:34.545Z,18.60
2022-10-05T22:45:01.485Z,18.60
2022-10-05T22:47:28.338Z,18.60
2022-10-05T22:49:55.267Z,18.60
2022-10-05T22:52:22.113Z,18.60
2022-10-05T22:54:49.063Z,18.60
2022-10-05T22:57:16.291Z,18.60
2022-10-05T22:59:43.466Z,18.50
2022-10-05T23:02:12.402Z,18.50
2022-10-05T23:04:39.487Z,18.60
2022-10-05T23:07:06.803Z,18.50
2022-10-05T23:09:33.639Z,18.50
2022-10-05T23:12:00.521Z,18.50
2022-10-05T23:14:29.291Z,18.50
2022-10-05T23:16:56.477Z,18.50
2022-10-05T23:19:23.847Z,18.50
2022-10-05T23:21:50.726Z,18.50
2022-10-05T23:24:17.589Z,18.50
2022-10-05T23:26:44.418Z,18.50
2022-10-05T23:29:11.816Z,18.50
2022-10-05T23:31:38.649Z,18.50
2022-10-05T23:34:05.455Z,18.40
2022-10-05T23:36:32.379Z,18.40
2022-10-05T23:39:00.215Z,18.40
2022-10-05T23:41:27.659Z,18.40
2022-10-05T23:43:57.481Z,18.40
2022-10-05T23:46:24.565Z,18.30
2022-10-05T23:48:53.101Z,18.30
2022-10-05T23:51:20.379Z,18.30
2022-10-05T23:53:47.343Z,18.20
2022-10-05T23:56:14.420Z,18.30
2022-10-05T23:58:41.328Z,18.20
